Search for airport 
image banner adimage banner adimage banner ad
image banner ad

PN74 - Hilltop

Located in Troy, United States

ICAO - PN74, IATA -

Data provided by Airmate  

General information

Coordinates: N41°46'55" W76°48'23"
Elevation is 1370 feet MSL.
Magnetic variation is -12° East
View others Airports in Pennsylvania

Operational data

Special qualification required
Current time UTC:
Current local time:
Weather at : KELM - Elmira/Corning Rgnl ( 43 km )
METAR: KELM 131853Z AUTO 00000KT 10SM FEW060 29/15 A2983 RMK AO2 SLP095 T02940150
TAF: KELM 131740Z 1318/1418 19005KT P6SM SCT040 TEMPO 1320/1324 4SM -TSRA BKN030CB OVC040 FM140000 VRB03KT P6SM BKN040 FM140500 VRB02KT 6SM BR BKN020 FM140900 00000KT 2SM BR BKN005 FM141400 00000KT 3SM -SHRA BR BKN018
View NOTAMs / SUP AIP / TFR affecting this airport [VIEW]
Communications frequencies: [VIEW]

Runways:

Airport contact information

Address: Troy United States

Satellite view of PN74